Terminal Aerodrome Forecast
Issued by NWS Wilmington, OH

Home | Current Version | Previous Version | Text Only | Print | Product List | Glossary On
Versions: 1 2 3 4 5 6 7 8 9 10 11 12 13 14 15 16 17 18 19 20 21 22 23 24 25 26 27 28 29
880
FTUS41 KILN 140538
TAFCVG
TAF
KCVG 140538Z 1406/1512 28022G30KT P6SM SCT028 OVC040
      TEMPO 1406/1408 BKN028
     FM140900 30016G23KT P6SM BKN025
     FM141200 34010KT P6SM BKN025
     FM141600 36008KT P6SM SCT030 OVC150
     FM150200 VRB03KT P6SM OVC150
     FM151000 20005KT P6SM BKN035=

USA.gov is the U.S. government's official web portal to all federal, state and local government web resources and services.